createdAt,value
2018-01-28T00:01:58.851Z,5.93
2018-01-28T00:04:28.360Z,6.97
2018-01-28T00:06:57.918Z,5.87
2018-01-28T00:09:27.553Z,4.90
2018-01-28T00:11:57.071Z,5.22
2018-01-28T00:14:26.576Z,4.40
2018-01-28T00:16:56.071Z,5.05
2018-01-28T00:19:25.588Z,5.53
2018-01-28T00:21:55.266Z,4.65
2018-01-28T00:24:24.737Z,3.70
2018-01-28T00:26:54.245Z,3.35
2018-01-28T00:29:23.720Z,4.60
2018-01-28T00:31:53.231Z,4.62
2018-01-28T00:34:22.747Z,4.80
2018-01-28T00:36:52.474Z,4.07
2018-01-28T00:39:21.940Z,4.80
2018-01-28T00:41:51.449Z,4.22
2018-01-28T00:44:20.964Z,4.37
2018-01-28T00:46:50.446Z,4.22
2018-01-28T00:49:19.951Z,3.80
2018-01-28T00:51:49.432Z,4.20
2018-01-28T00:54:19.652Z,4.72
2018-01-28T00:56:49.115Z,4.45
2018-01-28T00:59:18.600Z,4.03
2018-01-28T01:01:48.771Z,4.10
2018-01-28T01:04:18.254Z,4.57
2018-01-28T01:06:47.733Z,4.55
2018-01-28T01:09:17.216Z,4.30
2018-01-28T01:11:46.726Z,4.90
2018-01-28T01:14:16.161Z,4.82
2018-01-28T01:16:45.643Z,4.30
2018-01-28T01:19:15.157Z,5.07
2018-01-28T01:21:44.670Z,4.87
2018-01-28T01:24:14.176Z,5.18
2018-01-28T01:26:43.657Z,4.35
2018-01-28T01:29:13.182Z,4.32
2018-01-28T01:31:42.626Z,4.87
2018-01-28T01:34:12.113Z,4.80
2018-01-28T01:36:41.617Z,4.95
2018-01-28T01:39:11.115Z,4.80
2018-01-28T01:41:40.577Z,4.47
2018-01-28T01:44:10.076Z,4.40
2018-01-28T01:46:39.555Z,3.75
2018-01-28T01:49:09.054Z,5.07
2018-01-28T01:51:38.551Z,3.80
2018-01-28T01:54:08.034Z,4.53
2018-01-28T01:56:37.531Z,4.60
2018-01-28T01:59:07.008Z,4.50
2018-01-28T02:01:36.532Z,4.78
2018-01-28T02:04:06.011Z,5.03
2018-01-28T02:06:35.476Z,4.47
2018-01-28T02:09:04.957Z,4.60
2018-01-28T02:11:34.432Z,5.05
2018-01-28T02:14:03.905Z,3.95
2018-01-28T02:16:33.393Z,4.57
2018-01-28T02:19:02.877Z,4.75
2018-01-28T02:21:32.332Z,4.10
2018-01-28T02:24:02.049Z,3.75
2018-01-28T02:26:31.530Z,4.35
2018-01-28T02:29:01.045Z,4.60
2018-01-28T02:31:30.502Z,4.93
2018-01-28T02:34:00.026Z,4.65
2018-01-28T02:36:29.530Z,3.92
2018-01-28T02:38:58.990Z,3.97
2018-01-28T02:41:28.515Z,4.10
2018-01-28T02:43:58.003Z,4.10
2018-01-28T02:46:27.507Z,4.43
2018-01-28T02:48:56.990Z,3.70
2018-01-28T02:51:26.466Z,4.75
2018-01-28T02:53:55.953Z,3.65
2018-01-28T02:56:25.435Z,4.10
2018-01-28T02:58:54.896Z,3.35
2018-01-28T03:01:24.406Z,3.83
2018-01-28T03:03:53.866Z,3.72
2018-01-28T03:06:23.344Z,4.07
2018-01-28T03:08:52.822Z,3.70
2018-01-28T03:11:22.365Z,3.37
2018-01-28T03:13:51.780Z,3.25
2018-01-28T03:16:21.280Z,3.20
2018-01-28T03:18:50.799Z,3.10
2018-01-28T03:21:20.354Z,3.08
2018-01-28T03:23:49.867Z,3.25
2018-01-28T03:26:19.343Z,3.10
2018-01-28T03:28:48.811Z,3.12
2018-01-28T03:31:18.621Z,2.97
2018-01-28T03:33:48.088Z,2.87
2018-01-28T03:36:17.808Z,3.00
2018-01-28T03:38:47.909Z,2.65
2018-01-28T03:41:17.544Z,2.62
2018-01-28T03:43:47.003Z,2.70
2018-01-28T03:46:16.492Z,2.50
2018-01-28T03:48:45.997Z,2.10
2018-01-28T03:51:15.483Z,2.62
2018-01-28T03:53:44.987Z,2.67
2018-01-28T03:56:14.505Z,2.47
2018-01-28T03:58:43.988Z,2.90
2018-01-28T04:01:13.464Z,2.12
2018-01-28T04:03:42.941Z,2.60
2018-01-28T04:06:12.476Z,2.30
2018-01-28T04:08:41.989Z,2.65
2018-01-28T04:11:11.520Z,2.47
2018-01-28T04:13:40.985Z,1.90
2018-01-28T04:16:10.488Z,2.55
2018-01-28T04:18:39.956Z,2.53
2018-01-28T04:21:09.453Z,1.75
2018-01-28T04:23:38.919Z,1.90
2018-01-28T04:26:08.411Z,2.30
2018-01-28T04:28:37.937Z,1.98
2018-01-28T04:31:07.433Z,1.95
2018-01-28T04:33:36.919Z,1.73
2018-01-28T04:36:06.394Z,1.98
2018-01-28T04:38:35.891Z,2.12
2018-01-28T04:41:05.405Z,1.80
2018-01-28T04:43:34.897Z,1.50
2018-01-28T04:46:04.406Z,1.37
2018-01-28T04:48:33.888Z,1.50
2018-01-28T04:51:03.389Z,1.30
2018-01-28T04:53:32.883Z,1.55
2018-01-28T04:56:02.394Z,1.40
2018-01-28T04:58:31.858Z,1.80
2018-01-28T05:01:01.351Z,1.60
2018-01-28T05:03:30.866Z,1.40
2018-01-28T05:06:00.342Z,1.40
2018-01-28T05:08:30.020Z,1.70
2018-01-28T05:10:59.503Z,2.20
2018-01-28T05:13:29.020Z,1.65
2018-01-28T05:15:58.544Z,1.70
2018-01-28T05:18:28.037Z,1.90
2018-01-28T05:20:57.528Z,1.85
2018-01-28T05:23:27.007Z,2.08
2018-01-28T05:25:56.533Z,2.00
2018-01-28T05:28:26.043Z,2.17
2018-01-28T05:30:55.577Z,2.25
2018-01-28T05:33:25.043Z,2.65
2018-01-28T05:35:54.525Z,2.08
2018-01-28T05:38:23.988Z,2.37
2018-01-28T05:40:53.484Z,2.92
2018-01-28T05:43:22.957Z,3.40
2018-01-28T05:45:52.465Z,3.00
2018-01-28T05:48:21.962Z,2.97
2018-01-28T05:50:51.479Z,2.95
2018-01-28T05:53:21.017Z,3.00
2018-01-28T05:55:50.533Z,3.35
2018-01-28T05:58:20.043Z,3.60
2018-01-28T06:00:49.548Z,3.90
2018-01-28T06:03:19.265Z,4.10
2018-01-28T06:05:48.725Z,4.03
2018-01-28T06:08:18.317Z,3.90
2018-01-28T06:10:47.777Z,4.28
2018-01-28T06:13:17.363Z,3.72
2018-01-28T06:15:46.866Z,4.12
2018-01-28T06:18:16.459Z,4.30
2018-01-28T06:20:45.937Z,4.35
2018-01-28T06:23:15.435Z,4.62
2018-01-28T06:25:44.901Z,4.50
2018-01-28T06:28:14.412Z,5.20
2018-01-28T06:30:43.878Z,5.20
2018-01-28T06:33:13.374Z,5.78
2018-01-28T06:35:42.871Z,5.72
2018-01-28T06:38:12.339Z,6.30
2018-01-28T06:40:41.902Z,5.95
2018-01-28T06:43:11.385Z,5.47
2018-01-28T06:45:40.880Z,5.90
2018-01-28T06:48:10.357Z,5.40
2018-01-28T06:50:39.847Z,6.32
2018-01-28T06:53:09.313Z,6.20
2018-01-28T06:55:38.812Z,5.90
2018-01-28T06:58:08.328Z,6.68
2018-01-28T07:00:37.775Z,6.35
2018-01-28T07:03:07.282Z,6.12
2018-01-28T07:05:36.748Z,6.00
2018-01-28T07:08:06.341Z,6.05
2018-01-28T07:10:35.813Z,6.10
2018-01-28T07:13:05.356Z,6.82
2018-01-28T07:15:34.829Z,6.22
2018-01-28T07:18:04.348Z,5.70
2018-01-28T07:20:33.806Z,5.78
2018-01-28T07:23:03.553Z,6.03
2018-01-28T07:25:33.015Z,6.03
2018-01-28T07:28:02.507Z,6.05
2018-01-28T07:30:32.008Z,6.03
2018-01-28T07:33:01.525Z,7.12
2018-01-28T07:35:30.999Z,6.00
2018-01-28T07:38:00.588Z,5.65
2018-01-28T07:40:30.139Z,6.15
2018-01-28T07:42:59.604Z,5.18
2018-01-28T07:45:29.160Z,5.80
2018-01-28T07:47:58.959Z,5.35
2018-01-28T07:50:28.436Z,9.15
2018-01-28T07:52:57.931Z,6.45
2018-01-28T07:55:27.436Z,4.70
2018-01-28T07:57:56.924Z,5.47
2018-01-28T08:00:26.418Z,5.47
2018-01-28T08:02:55.891Z,5.35
2018-01-28T08:05:25.383Z,5.57
2018-01-28T08:07:54.843Z,5.85
2018-01-28T08:10:39.221Z,5.20
2018-01-28T08:13:08.692Z,5.47
2018-01-28T08:15:38.197Z,5.03
2018-01-28T08:18:07.689Z,5.80
2018-01-28T08:20:37.203Z,5.00
2018-01-28T08:23:06.663Z,5.60
2018-01-28T08:25:36.203Z,5.90
2018-01-28T08:28:22.486Z,5.12
2018-01-28T08:30:51.976Z,5.60
2018-01-28T08:33:21.468Z,5.85
2018-01-28T08:35:50.966Z,6.40
2018-01-28T08:38:20.459Z,5.95
2018-01-28T08:40:50.099Z,5.00
2018-01-28T08:43:19.571Z,5.43
2018-01-28T08:45:49.083Z,5.70
2018-01-28T08:48:18.580Z,5.93
2018-01-28T08:50:48.267Z,4.95
2018-01-28T08:53:17.771Z,5.68
2018-01-28T08:55:47.264Z,5.30
2018-01-28T08:58:16.859Z,6.72
2018-01-28T09:00:46.335Z,6.00
2018-01-28T09:03:15.817Z,6.47
2018-01-28T09:05:45.328Z,5.82
2018-01-28T09:08:14.818Z,6.20
2018-01-28T09:10:44.312Z,6.47
2018-01-28T09:13:13.805Z,5.30
2018-01-28T09:15:43.304Z,5.55
2018-01-28T09:18:12.772Z,5.72
2018-01-28T09:20:42.274Z,5.78
2018-01-28T09:23:11.800Z,5.80
2018-01-28T09:25:41.277Z,5.78
2018-01-28T09:28:10.790Z,5.20
2018-01-28T09:30:40.343Z,5.32
2018-01-28T09:33:09.841Z,6.62
2018-01-28T09:35:39.289Z,5.30
2018-01-28T09:38:08.794Z,5.62
2018-01-28T09:40:38.257Z,6.32
2018-01-28T09:43:07.765Z,5.53
2018-01-28T09:45:37.251Z,6.00
2018-01-28T09:48:06.786Z,6.07
2018-01-28T09:50:36.267Z,5.70
2018-01-28T09:53:05.743Z,4.95
2018-01-28T09:55:35.240Z,5.47
2018-01-28T09:58:04.722Z,6.30
2018-01-28T10:00:34.304Z,6.60
2018-01-28T10:03:03.776Z,6.30
2018-01-28T10:05:33.278Z,5.35
2018-01-28T10:08:02.799Z,5.45
2018-01-28T10:10:32.268Z,5.55
2018-01-28T10:13:01.805Z,6.05
2018-01-28T10:15:31.273Z,5.37
2018-01-28T10:18:00.870Z,6.00
2018-01-28T10:20:30.338Z,5.43
2018-01-28T10:22:59.869Z,6.20
2018-01-28T10:25:29.371Z,6.20
2018-01-28T10:27:58.914Z,7.03
2018-01-28T10:30:28.436Z,6.85
2018-01-28T10:32:58.035Z,6.05
2018-01-28T10:35:27.556Z,6.32
2018-01-28T10:37:57.133Z,6.55
2018-01-28T10:40:26.670Z,6.12
2018-01-28T10:42:56.173Z,6.60
2018-01-28T10:45:25.739Z,6.20
2018-01-28T10:47:55.251Z,5.82
2018-01-28T10:50:24.713Z,7.53
2018-01-28T10:52:54.228Z,6.50
2018-01-28T10:55:23.714Z,5.75
2018-01-28T10:57:53.211Z,6.55
2018-01-28T11:00:22.696Z,6.70
2018-01-28T11:02:52.231Z,7.47
2018-01-28T11:05:21.821Z,6.65
2018-01-28T11:07:51.299Z,6.47
2018-01-28T11:10:20.803Z,7.72
2018-01-28T11:12:50.399Z,6.62
2018-01-28T11:15:19.894Z,6.85
2018-01-28T11:17:49.446Z,7.57
2018-01-28T11:20:18.911Z,7.30
2018-01-28T11:22:48.401Z,7.07
2018-01-28T11:25:17.904Z,7.00
2018-01-28T11:27:47.450Z,7.70
2018-01-28T11:30:16.919Z,8.13
2018-01-28T11:32:46.400Z,7.47
2018-01-28T11:35:15.911Z,8.13
2018-01-28T11:37:45.433Z,8.73
2018-01-28T11:40:14.908Z,8.80
2018-01-28T11:42:44.433Z,7.18
2018-01-28T11:45:13.916Z,9.07
2018-01-28T11:47:43.459Z,8.40
2018-01-28T11:50:12.970Z,8.75
2018-01-28T11:52:42.488Z,8.70
2018-01-28T11:55:11.973Z,8.45
2018-01-28T11:57:41.526Z,9.95
2018-01-28T12:00:11.004Z,8.70
2018-01-28T12:02:40.676Z,9.35
2018-01-28T12:05:10.145Z,8.35
2018-01-28T12:07:39.718Z,9.85
2018-01-28T12:10:09.242Z,9.50
2018-01-28T12:12:38.719Z,9.85
2018-01-28T12:15:08.224Z,8.55
2018-01-28T12:17:37.729Z,9.57
2018-01-28T12:20:07.225Z,9.20
2018-01-28T12:22:36.679Z,12.37
2018-01-28T12:25:06.239Z,10.20
2018-01-28T12:27:35.723Z,11.15
2018-01-28T12:30:05.274Z,9.30
2018-01-28T12:32:34.728Z,11.25
2018-01-28T12:35:04.269Z,9.55
2018-01-28T12:37:33.760Z,11.63
2018-01-28T12:40:03.445Z,11.00
2018-01-28T12:42:32.994Z,9.27
2018-01-28T12:45:02.463Z,9.40
2018-01-28T12:47:32.198Z,9.68
2018-01-28T12:50:01.691Z,10.90
2018-01-28T12:52:31.196Z,9.35
2018-01-28T12:55:00.693Z,8.70
2018-01-28T12:57:30.225Z,7.65
2018-01-28T12:59:59.726Z,8.88
2018-01-28T13:02:29.264Z,9.10
2018-01-28T13:04:58.779Z,8.95
2018-01-28T13:07:28.456Z,9.85
2018-01-28T13:09:57.960Z,9.25
2018-01-28T13:12:27.532Z,9.98
2018-01-28T13:14:56.996Z,9.57
2018-01-28T13:17:26.518Z,9.38
2018-01-28T13:19:56.014Z,9.95
2018-01-28T13:22:25.752Z,9.88
2018-01-28T13:24:55.232Z,9.05
2018-01-28T13:27:24.784Z,10.20
2018-01-28T13:29:54.248Z,11.00
2018-01-28T13:32:23.905Z,9.68
2018-01-28T13:34:53.701Z,10.60
2018-01-28T13:37:23.188Z,10.88
2018-01-28T13:39:52.742Z,10.15
2018-01-28T13:42:22.202Z,10.02
2018-01-28T13:44:51.739Z,9.40
2018-01-28T13:47:21.264Z,10.00
2018-01-28T13:49:50.785Z,10.30
2018-01-28T13:52:20.317Z,9.82
2018-01-28T13:54:50.023Z,8.57
2018-01-28T13:57:19.492Z,11.00
2018-01-28T13:59:49.020Z,9.50
2018-01-28T14:02:18.645Z,9.07
2018-01-28T14:04:48.057Z,9.13
2018-01-28T14:07:17.551Z,10.05
2018-01-28T14:09:47.040Z,10.65
2018-01-28T14:12:16.539Z,10.00
2018-01-28T14:23:30.130Z,9.82
2018-01-28T14:25:59.661Z,9.90
2018-01-28T14:34:18.680Z,9.55
2018-01-28T14:36:48.199Z,10.32
2018-01-28T14:39:17.687Z,10.48
2018-01-28T14:41:47.230Z,9.73
2018-01-28T14:44:16.749Z,12.00
2018-01-28T14:46:46.223Z,10.48
2018-01-28T14:49:15.732Z,10.18
2018-01-28T14:51:45.258Z,10.23
2018-01-28T14:54:14.756Z,10.43
2018-01-28T14:56:44.426Z,10.63
2018-01-28T14:59:13.985Z,11.50
2018-01-28T15:01:43.592Z,11.05
2018-01-28T15:04:13.073Z,9.93
2018-01-28T15:06:42.723Z,11.77
2018-01-28T15:09:12.226Z,12.65
2018-01-28T15:11:41.737Z,11.85
2018-01-28T15:14:11.270Z,10.85
2018-01-28T15:16:40.751Z,10.52
2018-01-28T15:19:10.274Z,13.50
2018-01-28T15:21:39.765Z,12.37
2018-01-28T15:24:09.305Z,11.93
2018-01-28T15:26:38.866Z,13.10
2018-01-28T15:29:08.406Z,12.07
2018-01-28T15:31:37.916Z,11.85
2018-01-28T15:34:07.422Z,12.23
2018-01-28T15:36:36.921Z,13.50
2018-01-28T15:39:06.466Z,13.70
2018-01-28T15:41:35.987Z,12.60
2018-01-28T15:44:05.498Z,13.52
2018-01-28T15:46:35.219Z,12.45
2018-01-28T15:49:04.713Z,12.60
2018-01-28T15:51:34.241Z,11.30
2018-01-28T15:54:03.922Z,12.68
2018-01-28T15:56:33.465Z,12.20
2018-01-28T15:59:02.933Z,13.20
2018-01-28T16:01:32.676Z,12.35
2018-01-28T16:04:02.148Z,13.35
2018-01-28T16:06:31.896Z,16.05
2018-01-28T16:09:01.398Z,14.93
2018-01-28T16:11:30.891Z,11.15
2018-01-28T16:14:00.398Z,14.77
2018-01-28T16:16:29.951Z,10.63
2018-01-28T16:18:59.409Z,17.05
2018-01-28T16:21:28.921Z,11.10
2018-01-28T16:23:58.665Z,10.00
2018-01-28T16:26:28.131Z,9.68
2018-01-28T16:28:57.701Z,10.05
2018-01-28T16:31:27.286Z,10.00
2018-01-28T16:33:56.794Z,9.13
2018-01-28T16:36:26.349Z,9.95
2018-01-28T16:38:55.845Z,9.15
2018-01-28T16:41:25.360Z,8.50
2018-01-28T16:43:54.866Z,8.95
2018-01-28T16:46:24.438Z,8.85
2018-01-28T16:48:54.011Z,8.25
2018-01-28T16:51:23.749Z,9.20
2018-01-28T16:53:53.301Z,9.25
2018-01-28T16:56:22.857Z,9.25
2018-01-28T16:58:53.265Z,9.25
2018-01-28T17:01:22.838Z,8.18
2018-01-28T17:03:52.354Z,8.00
2018-01-28T17:06:21.855Z,9.10
2018-01-28T17:08:51.489Z,7.75
2018-01-28T17:11:20.952Z,8.23
2018-01-28T17:13:50.498Z,8.82
2018-01-28T17:16:20.011Z,8.63
2018-01-28T17:18:49.710Z,8.80
2018-01-28T17:21:19.192Z,9.50
2018-01-28T17:23:48.839Z,8.90
2018-01-28T17:26:18.326Z,8.60
2018-01-28T17:28:47.858Z,8.70
2018-01-28T17:31:17.340Z,8.43
2018-01-28T17:33:46.837Z,8.50
2018-01-28T17:36:16.390Z,8.23
2018-01-28T17:38:45.881Z,7.35
2018-01-28T17:41:15.385Z,7.35
2018-01-28T17:43:45.254Z,7.90
2018-01-28T17:46:15.005Z,6.82
2018-01-28T17:48:44.527Z,7.68
2018-01-28T17:51:14.089Z,7.05
2018-01-28T17:53:43.684Z,7.90
2018-01-28T17:56:13.320Z,6.55
2018-01-28T17:58:42.868Z,8.07
2018-01-28T18:01:12.425Z,7.20
2018-01-28T18:03:42.038Z,7.30
2018-01-28T18:06:11.562Z,7.70
2018-01-28T18:08:41.084Z,7.28
2018-01-28T18:11:10.646Z,7.15
2018-01-28T18:13:40.239Z,6.70
2018-01-28T18:16:09.763Z,6.87
2018-01-28T18:18:39.374Z,6.87
2018-01-28T18:21:09.258Z,7.22
2018-01-28T18:23:38.826Z,8.10
2018-01-28T18:26:08.328Z,7.55
2018-01-28T18:28:37.850Z,7.35
2018-01-28T18:31:07.415Z,7.40
2018-01-28T18:33:36.955Z,6.90
2018-01-28T18:36:06.484Z,7.25
2018-01-28T18:38:37.018Z,7.07
2018-01-28T18:41:06.541Z,6.30
2018-01-28T18:43:36.308Z,7.37
2018-01-28T18:46:05.814Z,6.00
2018-01-28T18:48:35.421Z,7.80
2018-01-28T18:51:05.118Z,6.90
2018-01-28T18:53:34.612Z,8.00
2018-01-28T18:56:04.353Z,7.25
2018-01-28T18:58:34.120Z,6.37
2018-01-28T19:01:03.686Z,6.40
2018-01-28T19:03:33.222Z,6.85
2018-01-28T19:06:02.774Z,7.55
2018-01-28T19:08:32.440Z,7.65
2018-01-28T19:11:01.950Z,7.30
2018-01-28T19:13:31.737Z,7.70
2018-01-28T19:16:01.239Z,8.65
2018-01-28T19:18:30.976Z,9.32
2018-01-28T19:21:00.497Z,9.18
2018-01-28T19:23:30.212Z,10.02
2018-01-28T19:25:59.715Z,9.25
2018-01-28T19:28:29.279Z,9.30
2018-01-28T19:30:58.841Z,9.05
2018-01-28T19:33:28.358Z,9.32
2018-01-28T19:35:57.901Z,9.15
2018-01-28T19:38:27.422Z,10.13
2018-01-28T19:40:56.957Z,10.80
2018-01-28T19:43:26.435Z,9.35
2018-01-28T19:45:56.148Z,10.65
2018-01-28T19:48:25.677Z,10.98
2018-01-28T19:50:55.474Z,10.43
2018-01-28T19:53:25.142Z,12.02
2018-01-28T19:55:54.663Z,11.05
2018-01-28T19:58:24.392Z,12.10
2018-01-28T20:00:53.902Z,10.88
2018-01-28T20:03:23.440Z,13.73
2018-01-28T20:05:52.961Z,13.38
2018-01-28T20:08:22.765Z,12.93
2018-01-28T20:10:52.331Z,12.52
2018-01-28T20:13:21.992Z,12.00
2018-01-28T20:15:51.508Z,14.38
2018-01-28T20:18:21.686Z,14.18
2018-01-28T20:20:51.272Z,14.13
2018-01-28T20:23:20.886Z,14.85
2018-01-28T20:25:50.468Z,14.30
2018-01-28T20:28:20.211Z,13.02
2018-01-28T20:30:49.877Z,13.65
2018-01-28T20:33:19.384Z,13.45
2018-01-28T20:35:49.005Z,13.43
2018-01-28T20:38:18.567Z,14.20
2018-01-28T20:40:48.708Z,14.48
2018-01-28T20:43:25.825Z,14.32
2018-01-28T20:45:55.361Z,13.60
2018-01-28T20:48:25.062Z,15.15
2018-01-28T20:50:54.583Z,14.07
2018-01-28T20:53:24.143Z,13.82
2018-01-28T20:55:54.625Z,15.30
2018-01-28T20:58:24.142Z,14.82
2018-01-28T21:00:53.689Z,15.80
2018-01-28T21:03:23.196Z,13.65
2018-01-28T21:05:53.510Z,13.25
2018-01-28T21:08:23.039Z,13.05
2018-01-28T21:10:52.734Z,11.73
2018-01-28T21:13:22.234Z,12.63
2018-01-28T21:15:51.793Z,12.48
2018-01-28T21:18:21.340Z,12.68
2018-01-28T21:20:50.854Z,12.20
2018-01-28T21:23:20.394Z,12.37
2018-01-28T21:25:49.913Z,12.70
2018-01-28T21:28:19.463Z,11.77
2018-01-28T21:30:49.533Z,11.98
2018-01-28T21:33:19.064Z,11.73
2018-01-28T21:35:48.643Z,11.48
2018-01-28T21:38:18.122Z,11.43
2018-01-28T21:40:47.652Z,10.00
2018-01-28T21:43:17.224Z,10.38
2018-01-28T21:45:46.752Z,10.75
2018-01-28T21:48:16.244Z,10.35
2018-01-28T21:50:45.759Z,10.63
2018-01-28T21:53:15.288Z,11.50
2018-01-28T21:55:44.810Z,11.30
2018-01-28T21:58:14.317Z,10.75
2018-01-28T22:00:43.846Z,9.88
2018-01-28T22:03:13.375Z,10.02
2018-01-28T22:05:43.052Z,9.18
2018-01-28T22:08:12.537Z,9.63
2018-01-28T22:10:42.058Z,8.95
2018-01-28T22:13:11.570Z,9.30
2018-01-28T22:15:41.129Z,9.38
2018-01-28T22:18:10.655Z,7.07
2018-01-28T22:20:40.129Z,9.20
2018-01-28T22:23:09.614Z,7.40
2018-01-28T22:25:39.121Z,7.97
2018-01-28T22:28:08.880Z,6.62
2018-01-28T22:30:38.364Z,7.28
2018-01-28T22:33:07.854Z,5.90
2018-01-28T22:35:37.356Z,6.20
2018-01-28T22:38:06.891Z,6.40
2018-01-28T22:40:36.390Z,5.30
2018-01-28T22:43:05.908Z,5.80
2018-01-28T22:45:35.422Z,5.55
2018-01-28T22:48:04.886Z,4.78
2018-01-28T22:50:34.417Z,4.75
2018-01-28T22:53:04.101Z,4.95
2018-01-28T22:55:33.674Z,4.47
2018-01-28T22:58:03.185Z,3.70
2018-01-28T23:00:32.714Z,4.22
2018-01-28T23:03:02.219Z,3.65
2018-01-28T23:05:31.706Z,3.22
2018-01-28T23:08:01.232Z,3.37
2018-01-28T23:10:30.692Z,3.70
2018-01-28T23:13:00.413Z,3.67
2018-01-28T23:15:29.885Z,3.45
2018-01-28T23:17:59.394Z,3.10
2018-01-28T23:20:28.910Z,3.08
2018-01-28T23:22:58.419Z,2.83
2018-01-28T23:25:27.906Z,3.05
2018-01-28T23:27:57.394Z,2.65
2018-01-28T23:30:26.840Z,2.87
2018-01-28T23:32:56.461Z,2.80
2018-01-28T23:35:25.940Z,3.00
2018-01-28T23:37:55.600Z,3.55
2018-01-28T23:40:25.116Z,2.70
2018-01-28T23:42:54.668Z,2.85
2018-01-28T23:45:24.173Z,3.60
2018-01-28T23:47:53.744Z,3.22
2018-01-28T23:50:23.261Z,2.70
2018-01-28T23:52:52.754Z,2.97
2018-01-28T23:55:22.468Z,3.33
2018-01-28T23:57:51.953Z,3.08
